sensor_id;sensor_type;location;lat;lon;timestamp;temperature;humidity
18043;DHT22;9146;48.074;11.968;2023-01-10T00:02:06;3.40;99.90
18043;DHT22;9146;48.074;11.968;2023-01-10T00:04:33;3.40;99.90
18043;DHT22;9146;48.074;11.968;2023-01-10T00:07:00;3.30;99.90
18043;DHT22;9146;48.074;11.968;2023-01-10T00:09:27;3.30;99.90
18043;DHT22;9146;48.074;11.968;2023-01-10T00:11:54;3.30;99.90
18043;DHT22;9146;48.074;11.968;2023-01-10T00:14:39;3.20;99.90
18043;DHT22;9146;48.074;11.968;2023-01-10T00:17:06;3.20;99.90
18043;DHT22;9146;48.074;11.968;2023-01-10T00:19:33;3.10;99.90
18043;DHT22;9146;48.074;11.968;2023-01-10T00:22:00;3.10;99.90
18043;DHT22;9146;48.074;11.968;2023-01-10T00:24:38;3.10;99.90
18043;DHT22;9146;48.074;11.968;2023-01-10T00:27:06;3.00;99.90
18043;DHT22;9146;48.074;11.968;2023-01-10T00:29:38;3.00;99.90
18043;DHT22;9146;48.074;11.968;2023-01-10T00:32:05;3.00;99.90
18043;DHT22;9146;48.074;11.968;2023-01-10T00:34:32;2.90;99.90
18043;DHT22;9146;48.074;11.968;2023-01-10T00:36:59;2.90;99.90
18043;DHT22;9146;48.074;11.968;2023-01-10T00:39:26;2.80;99.90
18043;DHT22;9146;48.074;11.968;2023-01-10T00:41:53;2.80;99.90
18043;DHT22;9146;48.074;11.968;2023-01-10T00:44:39;2.80;99.90
18043;DHT22;9146;48.074;11.968;2023-01-10T00:47:06;2.80;99.90
18043;DHT22;9146;48.074;11.968;2023-01-10T00:49:33;2.80;99.90
18043;DHT22;9146;48.074;11.968;2023-01-10T00:52:00;2.80;99.90
18043;DHT22;9146;48.074;11.968;2023-01-10T00:54:27;2.80;99.90
18043;DHT22;9146;48.074;11.968;2023-01-10T00:56:54;2.80;99.90
18043;DHT22;9146;48.074;11.968;2023-01-10T00:59:21;2.80;99.90
18043;DHT22;9146;48.074;11.968;2023-01-10T01:01:50;2.80;99.90
18043;DHT22;9146;48.074;11.968;2023-01-10T01:04:17;2.80;99.90
18043;DHT22;9146;48.074;11.968;2023-01-10T01:06:44;2.80;99.90
18043;DHT22;9146;48.074;11.968;2023-01-10T01:09:12;2.80;99.90
18043;DHT22;9146;48.074;11.968;2023-01-10T01:11:39;2.80;99.90
18043;DHT22;9146;48.074;11.968;2023-01-10T01:14:06;2.80;99.90
18043;DHT22;9146;48.074;11.968;2023-01-10T01:16:33;2.80;99.90
18043;DHT22;9146;48.074;11.968;2023-01-10T01:19:02;2.80;99.90
18043;DHT22;9146;48.074;11.968;2023-01-10T01:21:29;2.80;99.90
18043;DHT22;9146;48.074;11.968;2023-01-10T01:23:56;2.80;99.90
18043;DHT22;9146;48.074;11.968;2023-01-10T01:26:23;2.80;99.90
18043;DHT22;9146;48.074;11.968;2023-01-10T01:28:51;2.70;99.90
18043;DHT22;9146;48.074;11.968;2023-01-10T01:31:18;2.70;99.90
18043;DHT22;9146;48.074;11.968;2023-01-10T01:33:45;2.70;99.90
18043;DHT22;9146;48.074;11.968;2023-01-10T01:36:13;2.60;99.90
18043;DHT22;9146;48.074;11.968;2023-01-10T01:38:40;2.60;99.90
18043;DHT22;9146;48.074;11.968;2023-01-10T01:41:08;2.60;99.90
18043;DHT22;9146;48.074;11.968;2023-01-10T01:43:59;2.50;99.90
18043;DHT22;9146;48.074;11.968;2023-01-10T01:46:27;2.50;99.90
18043;DHT22;9146;48.074;11.968;2023-01-10T01:48:54;2.50;99.90
18043;DHT22;9146;48.074;11.968;2023-01-10T01:51:26;2.50;99.90
18043;DHT22;9146;48.074;11.968;2023-01-10T01:53:58;2.50;99.90
18043;DHT22;9146;48.074;11.968;2023-01-10T01:56:31;2.50;99.90
18043;DHT22;9146;48.074;11.968;2023-01-10T01:59:02;2.50;99.90
18043;DHT22;9146;48.074;11.968;2023-01-10T02:01:31;2.50;99.90
18043;DHT22;9146;48.074;11.968;2023-01-10T02:04:06;2.50;99.90
18043;DHT22;9146;48.074;11.968;2023-01-10T02:06:37;2.50;99.90
18043;DHT22;9146;48.074;11.968;2023-01-10T02:09:09;2.50;99.90
18043;DHT22;9146;48.074;11.968;2023-01-10T02:11:38;2.50;99.90
18043;DHT22;9146;48.074;11.968;2023-01-10T02:14:06;2.40;99.90
18043;DHT22;9146;48.074;11.968;2023-01-10T02:16:33;2.40;99.90
18043;DHT22;9146;48.074;11.968;2023-01-10T02:19:01;2.40;99.90
18043;DHT22;9146;48.074;11.968;2023-01-10T02:27:25;2.40;99.90
18043;DHT22;9146;48.074;11.968;2023-01-10T02:32:57;2.30;99.90
18043;DHT22;9146;48.074;11.968;2023-01-10T02:36:05;2.30;99.90
18043;DHT22;9146;48.074;11.968;2023-01-10T02:38:47;2.30;99.90
18043;DHT22;9146;48.074;11.968;2023-01-10T02:41:22;2.30;99.90
18043;DHT22;9146;48.074;11.968;2023-01-10T02:43:56;2.30;99.90
18043;DHT22;9146;48.074;11.968;2023-01-10T02:46:27;2.30;99.90
18043;DHT22;9146;48.074;11.968;2023-01-10T02:48:56;2.30;99.90
18043;DHT22;9146;48.074;11.968;2023-01-10T02:51:24;2.30;99.90
18043;DHT22;9146;48.074;11.968;2023-01-10T02:53:55;2.30;99.90
18043;DHT22;9146;48.074;11.968;2023-01-10T02:59:48;2.40;99.90
18043;DHT22;9146;48.074;11.968;2023-01-10T03:02:25;2.40;99.90
18043;DHT22;9146;48.074;11.968;2023-01-10T03:05:02;2.30;99.90
18043;DHT22;9146;48.074;11.968;2023-01-10T03:07:36;2.40;99.90
18043;DHT22;9146;48.074;11.968;2023-01-10T03:10:06;2.30;99.90
18043;DHT22;9146;48.074;11.968;2023-01-10T03:12:40;2.40;99.90
18043;DHT22;9146;48.074;11.968;2023-01-10T03:15:12;2.40;99.90
18043;DHT22;9146;48.074;11.968;2023-01-10T03:17:42;2.30;99.90
18043;DHT22;9146;48.074;11.968;2023-01-10T03:20:12;2.30;99.90
18043;DHT22;9146;48.074;11.968;2023-01-10T03:22:39;2.30;99.90
18043;DHT22;9146;48.074;11.968;2023-01-10T03:25:09;2.30;99.90
18043;DHT22;9146;48.074;11.968;2023-01-10T03:27:44;2.30;99.90
18043;DHT22;9146;48.074;11.968;2023-01-10T03:30:19;2.30;99.90
18043;DHT22;9146;48.074;11.968;2023-01-10T03:32:49;2.30;99.90
18043;DHT22;9146;48.074;11.968;2023-01-10T03:35:20;2.30;99.90
18043;DHT22;9146;48.074;11.968;2023-01-10T03:37:53;2.40;99.90
18043;DHT22;9146;48.074;11.968;2023-01-10T03:40:29;2.40;99.90
18043;DHT22;9146;48.074;11.968;2023-01-10T03:43:01;2.40;99.90
18043;DHT22;9146;48.074;11.968;2023-01-10T03:45:52;2.40;99.90
18043;DHT22;9146;48.074;11.968;2023-01-10T03:48:25;2.40;99.90
18043;DHT22;9146;48.074;11.968;2023-01-10T03:50:54;2.40;99.90
18043;DHT22;9146;48.074;11.968;2023-01-10T03:53:22;2.40;99.90
18043;DHT22;9146;48.074;11.968;2023-01-10T03:55:49;2.40;99.90
18043;DHT22;9146;48.074;11.968;2023-01-10T03:58:16;2.40;99.90
18043;DHT22;9146;48.074;11.968;2023-01-10T04:00:46;2.40;99.90
18043;DHT22;9146;48.074;11.968;2023-01-10T04:03:13;2.40;99.90
18043;DHT22;9146;48.074;11.968;2023-01-10T04:05:40;2.40;99.90
18043;DHT22;9146;48.074;11.968;2023-01-10T04:08:09;2.40;99.90
18043;DHT22;9146;48.074;11.968;2023-01-10T04:10:36;2.40;99.90
18043;DHT22;9146;48.074;11.968;2023-01-10T04:13:04;2.40;99.90
18043;DHT22;9146;48.074;11.968;2023-01-10T04:15:31;2.40;99.90
18043;DHT22;9146;48.074;11.968;2023-01-10T04:17:58;2.40;99.90
18043;DHT22;9146;48.074;11.968;2023-01-10T04:20:25;2.40;99.90
18043;DHT22;9146;48.074;11.968;2023-01-10T04:22:52;2.40;99.90
18043;DHT22;9146;48.074;11.968;2023-01-10T04:25:20;2.40;99.90
18043;DHT22;9146;48.074;11.968;2023-01-10T04:27:48;2.40;99.90
18043;DHT22;9146;48.074;11.968;2023-01-10T04:30:15;2.40;99.90
18043;DHT22;9146;48.074;11.968;2023-01-10T04:32:42;2.40;99.90
18043;DHT22;9146;48.074;11.968;2023-01-10T04:35:09;2.40;99.90
18043;DHT22;9146;48.074;11.968;2023-01-10T04:37:36;2.40;99.90
18043;DHT22;9146;48.074;11.968;2023-01-10T04:40:04;2.30;99.90
18043;DHT22;9146;48.074;11.968;2023-01-10T04:42:32;2.30;99.90
18043;DHT22;9146;48.074;11.968;2023-01-10T04:44:59;2.30;99.90
18043;DHT22;9146;48.074;11.968;2023-01-10T04:47:26;2.30;99.90
18043;DHT22;9146;48.074;11.968;2023-01-10T04:49:53;2.30;99.90
18043;DHT22;9146;48.074;11.968;2023-01-10T04:52:20;2.20;99.90
18043;DHT22;9146;48.074;11.968;2023-01-10T04:54:47;2.20;99.90
18043;DHT22;9146;48.074;11.968;2023-01-10T04:57:14;2.20;99.90
18043;DHT22;9146;48.074;11.968;2023-01-10T04:59:42;2.30;99.90
18043;DHT22;9146;48.074;11.968;2023-01-10T05:02:09;2.20;99.90
18043;DHT22;9146;48.074;11.968;2023-01-10T05:04:36;2.30;99.90
18043;DHT22;9146;48.074;11.968;2023-01-10T05:07:03;2.30;99.90
18043;DHT22;9146;48.074;11.968;2023-01-10T05:09:30;2.30;99.90
18043;DHT22;9146;48.074;11.968;2023-01-10T05:11:56;2.30;99.90
18043;DHT22;9146;48.074;11.968;2023-01-10T05:14:23;2.30;99.90
18043;DHT22;9146;48.074;11.968;2023-01-10T05:16:52;2.30;99.90
18043;DHT22;9146;48.074;11.968;2023-01-10T05:19:18;2.30;99.90
18043;DHT22;9146;48.074;11.968;2023-01-10T05:21:45;2.30;99.90
18043;DHT22;9146;48.074;11.968;2023-01-10T05:24:12;2.30;99.90
18043;DHT22;9146;48.074;11.968;2023-01-10T05:26:39;2.40;99.90
18043;DHT22;9146;48.074;11.968;2023-01-10T05:29:08;2.40;99.90
18043;DHT22;9146;48.074;11.968;2023-01-10T05:31:35;2.40;99.90
18043;DHT22;9146;48.074;11.968;2023-01-10T05:34:03;2.40;99.90
18043;DHT22;9146;48.074;11.968;2023-01-10T05:36:30;2.40;99.90
18043;DHT22;9146;48.074;11.968;2023-01-10T05:38:57;2.30;99.90
18043;DHT22;9146;48.074;11.968;2023-01-10T05:41:24;2.40;99.90
18043;DHT22;9146;48.074;11.968;2023-01-10T05:43:51;2.40;99.90
18043;DHT22;9146;48.074;11.968;2023-01-10T05:46:18;2.30;99.90
18043;DHT22;9146;48.074;11.968;2023-01-10T05:48:45;2.30;99.90
18043;DHT22;9146;48.074;11.968;2023-01-10T05:51:14;2.30;99.90
18043;DHT22;9146;48.074;11.968;2023-01-10T05:53:41;2.30;99.90
18043;DHT22;9146;48.074;11.968;2023-01-10T05:56:08;2.30;99.90
18043;DHT22;9146;48.074;11.968;2023-01-10T05:58:35;2.40;99.90
18043;DHT22;9146;48.074;11.968;2023-01-10T06:01:02;2.40;99.90
18043;DHT22;9146;48.074;11.968;2023-01-10T06:03:29;2.40;99.90
18043;DHT22;9146;48.074;11.968;2023-01-10T06:05:56;2.40;99.90
18043;DHT22;9146;48.074;11.968;2023-01-10T06:08:24;2.40;99.90
18043;DHT22;9146;48.074;11.968;2023-01-10T06:10:51;2.40;99.90
18043;DHT22;9146;48.074;11.968;2023-01-10T06:13:18;2.40;99.90
18043;DHT22;9146;48.074;11.968;2023-01-10T06:15:45;2.40;99.90
18043;DHT22;9146;48.074;11.968;2023-01-10T06:18:13;2.40;99.90
18043;DHT22;9146;48.074;11.968;2023-01-10T06:20:40;2.40;99.90
18043;DHT22;9146;48.074;11.968;2023-01-10T06:23:07;2.40;99.90
18043;DHT22;9146;48.074;11.968;2023-01-10T06:25:37;2.40;99.90
18043;DHT22;9146;48.074;11.968;2023-01-10T06:28:05;2.30;99.90
18043;DHT22;9146;48.074;11.968;2023-01-10T06:30:32;2.40;99.90
18043;DHT22;9146;48.074;11.968;2023-01-10T06:33:00;2.40;99.90
18043;DHT22;9146;48.074;11.968;2023-01-10T06:35:27;2.40;99.90
18043;DHT22;9146;48.074;11.968;2023-01-10T06:37:55;2.40;99.90
18043;DHT22;9146;48.074;11.968;2023-01-10T06:40:22;2.40;99.90
18043;DHT22;9146;48.074;11.968;2023-01-10T06:42:51;2.40;99.90
18043;DHT22;9146;48.074;11.968;2023-01-10T06:45:18;2.40;99.90
18043;DHT22;9146;48.074;11.968;2023-01-10T06:47:44;2.50;99.90
18043;DHT22;9146;48.074;11.968;2023-01-10T06:50:12;2.50;99.90
18043;DHT22;9146;48.074;11.968;2023-01-10T06:52:39;2.50;99.90
18043;DHT22;9146;48.074;11.968;2023-01-10T06:55:07;2.50;99.90
18043;DHT22;9146;48.074;11.968;2023-01-10T06:57:34;2.50;99.90
18043;DHT22;9146;48.074;11.968;2023-01-10T07:00:06;2.50;99.90
18043;DHT22;9146;48.074;11.968;2023-01-10T07:02:34;2.50;99.90
18043;DHT22;9146;48.074;11.968;2023-01-10T07:05:01;2.50;99.90
18043;DHT22;9146;48.074;11.968;2023-01-10T07:07:28;2.40;99.90
18043;DHT22;9146;48.074;11.968;2023-01-10T07:09:55;2.30;99.90
18043;DHT22;9146;48.074;11.968;2023-01-10T07:12:24;2.30;99.90
18043;DHT22;9146;48.074;11.968;2023-01-10T07:14:51;2.20;99.90
18043;DHT22;9146;48.074;11.968;2023-01-10T07:17:19;2.20;99.90
18043;DHT22;9146;48.074;11.968;2023-01-10T07:19:46;2.20;99.90
18043;DHT22;9146;48.074;11.968;2023-01-10T07:22:13;2.20;99.90
18043;DHT22;9146;48.074;11.968;2023-01-10T07:24:39;2.20;99.90
18043;DHT22;9146;48.074;11.968;2023-01-10T07:27:06;2.20;99.90
18043;DHT22;9146;48.074;11.968;2023-01-10T07:29:33;2.20;99.90
18043;DHT22;9146;48.074;11.968;2023-01-10T07:32:00;2.20;99.90
18043;DHT22;9146;48.074;11.968;2023-01-10T07:34:29;2.20;99.90
18043;DHT22;9146;48.074;11.968;2023-01-10T07:36:56;2.30;99.90
18043;DHT22;9146;48.074;11.968;2023-01-10T07:39:23;2.30;99.90
18043;DHT22;9146;48.074;11.968;2023-01-10T07:41:50;2.30;99.90
18043;DHT22;9146;48.074;11.968;2023-01-10T07:44:17;2.40;99.90
18043;DHT22;9146;48.074;11.968;2023-01-10T07:46:44;2.40;99.90
18043;DHT22;9146;48.074;11.968;2023-01-10T07:49:12;2.40;99.90
18043;DHT22;9146;48.074;11.968;2023-01-10T07:51:41;2.40;99.90
18043;DHT22;9146;48.074;11.968;2023-01-10T07:54:08;2.40;99.90
18043;DHT22;9146;48.074;11.968;2023-01-10T07:56:35;2.40;99.90
18043;DHT22;9146;48.074;11.968;2023-01-10T07:59:01;2.40;99.90
18043;DHT22;9146;48.074;11.968;2023-01-10T08:01:28;2.40;99.90
18043;DHT22;9146;48.074;11.968;2023-01-10T08:03:56;2.40;99.90
18043;DHT22;9146;48.074;11.968;2023-01-10T08:06:23;2.40;99.90
18043;DHT22;9146;48.074;11.968;2023-01-10T08:08:52;2.40;99.90
18043;DHT22;9146;48.074;11.968;2023-01-10T08:11:19;2.30;99.90
18043;DHT22;9146;48.074;11.968;2023-01-10T08:13:46;2.30;99.90
18043;DHT22;9146;48.074;11.968;2023-01-10T08:16:12;2.30;99.90
18043;DHT22;9146;48.074;11.968;2023-01-10T08:18:40;2.30;99.90
18043;DHT22;9146;48.074;11.968;2023-01-10T08:21:08;2.40;99.90
18043;DHT22;9146;48.074;11.968;2023-01-10T08:23:35;2.40;99.90
18043;DHT22;9146;48.074;11.968;2023-01-10T08:26:05;2.40;99.90
18043;DHT22;9146;48.074;11.968;2023-01-10T08:28:32;2.40;99.90
18043;DHT22;9146;48.074;11.968;2023-01-10T08:31:04;2.50;99.90
18043;DHT22;9146;48.074;11.968;2023-01-10T08:33:31;2.50;99.90
18043;DHT22;9146;48.074;11.968;2023-01-10T08:35:58;2.60;99.90
18043;DHT22;9146;48.074;11.968;2023-01-10T08:38:24;2.70;99.90
18043;DHT22;9146;48.074;11.968;2023-01-10T08:40:51;2.70;99.90
18043;DHT22;9146;48.074;11.968;2023-01-10T08:43:23;2.80;99.90
18043;DHT22;9146;48.074;11.968;2023-01-10T08:45:49;2.80;99.90
18043;DHT22;9146;48.074;11.968;2023-01-10T08:48:16;2.80;99.90
18043;DHT22;9146;48.074;11.968;2023-01-10T08:50:43;2.80;99.90
18043;DHT22;9146;48.074;11.968;2023-01-10T08:53:10;2.90;99.90
18043;DHT22;9146;48.074;11.968;2023-01-10T08:55:38;2.80;99.90
18043;DHT22;9146;48.074;11.968;2023-01-10T08:58:05;2.90;99.90
18043;DHT22;9146;48.074;11.968;2023-01-10T09:00:33;2.90;99.90
18043;DHT22;9146;48.074;11.968;2023-01-10T09:03:00;2.90;99.90
18043;DHT22;9146;48.074;11.968;2023-01-10T09:05:28;2.90;99.90
18043;DHT22;9146;48.074;11.968;2023-01-10T09:07:58;3.00;99.90
18043;DHT22;9146;48.074;11.968;2023-01-10T09:10:25;2.90;99.90
18043;DHT22;9146;48.074;11.968;2023-01-10T09:12:52;3.00;99.90
18043;DHT22;9146;48.074;11.968;2023-01-10T09:15:26;3.00;99.90
18043;DHT22;9146;48.074;11.968;2023-01-10T09:17:55;3.10;99.90
18043;DHT22;9146;48.074;11.968;2023-01-10T09:20:23;3.00;99.90
18043;DHT22;9146;48.074;11.968;2023-01-10T09:22:51;3.10;99.90
18043;DHT22;9146;48.074;11.968;2023-01-10T09:25:18;3.10;99.90
18043;DHT22;9146;48.074;11.968;2023-01-10T09:27:45;3.20;99.90
18043;DHT22;9146;48.074;11.968;2023-01-10T09:30:12;3.20;99.90
18043;DHT22;9146;48.074;11.968;2023-01-10T09:32:39;3.20;99.90
18043;DHT22;9146;48.074;11.968;2023-01-10T09:35:08;3.20;99.90
18043;DHT22;9146;48.074;11.968;2023-01-10T09:37:35;3.20;99.90
18043;DHT22;9146;48.074;11.968;2023-01-10T09:40:04;3.20;99.90
18043;DHT22;9146;48.074;11.968;2023-01-10T09:42:47;3.20;99.90
18043;DHT22;9146;48.074;11.968;2023-01-10T09:45:19;3.20;99.90
18043;DHT22;9146;48.074;11.968;2023-01-10T09:47:51;3.30;99.90
18043;DHT22;9146;48.074;11.968;2023-01-10T09:50:26;3.30;99.90
18043;DHT22;9146;48.074;11.968;2023-01-10T09:53:00;3.40;99.90
18043;DHT22;9146;48.074;11.968;2023-01-10T09:55:30;3.30;99.90
18043;DHT22;9146;48.074;11.968;2023-01-10T09:58:00;3.30;99.90
18043;DHT22;9146;48.074;11.968;2023-01-10T10:00:36;3.30;99.90
18043;DHT22;9146;48.074;11.968;2023-01-10T10:03:16;3.30;99.90
18043;DHT22;9146;48.074;11.968;2023-01-10T10:05:46;3.30;99.90
18043;DHT22;9146;48.074;11.968;2023-01-10T10:08:17;3.20;99.90
18043;DHT22;9146;48.074;11.968;2023-01-10T10:10:54;3.20;99.90
18043;DHT22;9146;48.074;11.968;2023-01-10T10:13:32;3.10;99.90
18043;DHT22;9146;48.074;11.968;2023-01-10T10:16:08;3.00;99.90
18043;DHT22;9146;48.074;11.968;2023-01-10T10:18:45;3.00;99.90
18043;DHT22;9146;48.074;11.968;2023-01-10T10:21:22;3.00;99.90
18043;DHT22;9146;48.074;11.968;2023-01-10T10:24:12;3.00;99.90
18043;DHT22;9146;48.074;11.968;2023-01-10T10:26:48;3.10;99.90
18043;DHT22;9146;48.074;11.968;2023-01-10T10:29:48;3.20;99.90
18043;DHT22;9146;48.074;11.968;2023-01-10T10:32:37;3.20;99.90
18043;DHT22;9146;48.074;11.968;2023-01-10T10:35:12;3.30;99.90
18043;DHT22;9146;48.074;11.968;2023-01-10T10:37:46;3.30;99.90
18043;DHT22;9146;48.074;11.968;2023-01-10T10:40:17;3.40;99.90
18043;DHT22;9146;48.074;11.968;2023-01-10T10:42:47;3.50;99.90
18043;DHT22;9146;48.074;11.968;2023-01-10T10:45:18;3.50;99.90
18043;DHT22;9146;48.074;11.968;2023-01-10T10:47:49;3.60;99.90
18043;DHT22;9146;48.074;11.968;2023-01-10T10:50:24;3.50;99.90
18043;DHT22;9146;48.074;11.968;2023-01-10T10:52:54;3.60;99.90
18043;DHT22;9146;48.074;11.968;2023-01-10T10:55:27;3.70;99.90
18043;DHT22;9146;48.074;11.968;2023-01-10T10:57:54;3.80;99.90
18043;DHT22;9146;48.074;11.968;2023-01-10T11:00:23;3.90;99.90
18043;DHT22;9146;48.074;11.968;2023-01-10T11:02:53;3.90;99.90
18043;DHT22;9146;48.074;11.968;2023-01-10T11:05:30;3.90;99.90
18043;DHT22;9146;48.074;11.968;2023-01-10T11:08:01;3.90;99.90
18043;DHT22;9146;48.074;11.968;2023-01-10T11:10:29;4.00;99.90
18043;DHT22;9146;48.074;11.968;2023-01-10T11:13:02;3.90;99.90
18043;DHT22;9146;48.074;11.968;2023-01-10T11:15:38;3.90;99.90
18043;DHT22;9146;48.074;11.968;2023-01-10T11:18:10;3.90;99.90
18043;DHT22;9146;48.074;11.968;2023-01-10T11:20:49;4.00;99.90
18043;DHT22;9146;48.074;11.968;2023-01-10T11:23:30;4.00;99.90
18043;DHT22;9146;48.074;11.968;2023-01-10T11:26:01;4.10;99.90
18043;DHT22;9146;48.074;11.968;2023-01-10T11:28:30;4.10;99.90
18043;DHT22;9146;48.074;11.968;2023-01-10T11:30:58;4.00;99.90
18043;DHT22;9146;48.074;11.968;2023-01-10T11:33:28;4.00;99.90
18043;DHT22;9146;48.074;11.968;2023-01-10T11:35:57;4.00;99.90
18043;DHT22;9146;48.074;11.968;2023-01-10T11:38:27;4.10;99.90
18043;DHT22;9146;48.074;11.968;2023-01-10T11:40:57;4.10;99.90
18043;DHT22;9146;48.074;11.968;2023-01-10T11:43:28;4.10;99.90
18043;DHT22;9146;48.074;11.968;2023-01-10T11:45:57;4.20;99.90
18043;DHT22;9146;48.074;11.968;2023-01-10T11:48:41;4.10;99.90
18043;DHT22;9146;48.074;11.968;2023-01-10T11:51:18;4.10;99.90
18043;DHT22;9146;48.074;11.968;2023-01-10T11:53:48;4.10;99.90
18043;DHT22;9146;48.074;11.968;2023-01-10T11:56:25;4.10;99.90
18043;DHT22;9146;48.074;11.968;2023-01-10T11:58:53;4.10;99.90
18043;DHT22;9146;48.074;11.968;2023-01-10T12:01:26;4.20;99.90
18043;DHT22;9146;48.074;11.968;2023-01-10T12:03:54;4.20;99.90
18043;DHT22;9146;48.074;11.968;2023-01-10T12:06:21;4.20;99.90
18043;DHT22;9146;48.074;11.968;2023-01-10T12:08:50;4.30;99.90
18043;DHT22;9146;48.074;11.968;2023-01-10T12:11:26;4.30;99.90
18043;DHT22;9146;48.074;11.968;2023-01-10T12:13:56;4.30;99.90
18043;DHT22;9146;48.074;11.968;2023-01-10T12:16:25;4.40;99.90
18043;DHT22;9146;48.074;11.968;2023-01-10T12:18:54;4.30;99.90
18043;DHT22;9146;48.074;11.968;2023-01-10T12:21:30;4.30;99.90
18043;DHT22;9146;48.074;11.968;2023-01-10T12:24:05;4.30;99.90
18043;DHT22;9146;48.074;11.968;2023-01-10T12:26:34;4.30;99.90
18043;DHT22;9146;48.074;11.968;2023-01-10T12:29:06;4.30;99.90
18043;DHT22;9146;48.074;11.968;2023-01-10T12:31:37;4.40;99.90
18043;DHT22;9146;48.074;11.968;2023-01-10T12:34:13;4.30;99.90
18043;DHT22;9146;48.074;11.968;2023-01-10T12:36:52;4.40;99.90
18043;DHT22;9146;48.074;11.968;2023-01-10T12:39:25;4.40;99.90
18043;DHT22;9146;48.074;11.968;2023-01-10T12:42:01;4.40;99.90
18043;DHT22;9146;48.074;11.968;2023-01-10T12:44:51;4.40;99.90
18043;DHT22;9146;48.074;11.968;2023-01-10T12:47:27;4.50;99.90
18043;DHT22;9146;48.074;11.968;2023-01-10T12:49:57;4.50;99.90
18043;DHT22;9146;48.074;11.968;2023-01-10T12:52:34;4.50;99.90
18043;DHT22;9146;48.074;11.968;2023-01-10T12:55:12;4.40;99.90
18043;DHT22;9146;48.074;11.968;2023-01-10T12:57:40;4.40;99.90
18043;DHT22;9146;48.074;11.968;2023-01-10T13:00:17;4.30;99.90
18043;DHT22;9146;48.074;11.968;2023-01-10T13:02:47;4.30;99.90
18043;DHT22;9146;48.074;11.968;2023-01-10T13:05:21;4.20;99.90
18043;DHT22;9146;48.074;11.968;2023-01-10T13:07:49;4.20;99.90
18043;DHT22;9146;48.074;11.968;2023-01-10T13:10:20;4.40;99.90
18043;DHT22;9146;48.074;11.968;2023-01-10T13:12:52;4.50;99.90
18043;DHT22;9146;48.074;11.968;2023-01-10T13:15:23;4.70;99.90
18043;DHT22;9146;48.074;11.968;2023-01-10T13:17:57;4.80;99.90
18043;DHT22;9146;48.074;11.968;2023-01-10T13:20:29;4.80;99.90
18043;DHT22;9146;48.074;11.968;2023-01-10T13:23:13;4.80;99.90
18043;DHT22;9146;48.074;11.968;2023-01-10T13:25:53;4.90;99.90
18043;DHT22;9146;48.074;11.968;2023-01-10T13:28:23;5.00;99.90
18043;DHT22;9146;48.074;11.968;2023-01-10T13:30:51;5.00;99.90
18043;DHT22;9146;48.074;11.968;2023-01-10T13:33:22;5.00;99.90
18043;DHT22;9146;48.074;11.968;2023-01-10T13:35:50;4.90;99.90
18043;DHT22;9146;48.074;11.968;2023-01-10T13:38:20;4.90;99.90
18043;DHT22;9146;48.074;11.968;2023-01-10T13:41:04;4.90;99.90
18043;DHT22;9146;48.074;11.968;2023-01-10T13:43:38;4.90;99.90
18043;DHT22;9146;48.074;11.968;2023-01-10T13:46:31;4.90;99.90
18043;DHT22;9146;48.074;11.968;2023-01-10T13:52:26;5.00;99.90
18043;DHT22;9146;48.074;11.968;2023-01-10T13:54:58;5.00;99.90
18043;DHT22;9146;48.074;11.968;2023-01-10T13:57:51;5.00;99.90
18043;DHT22;9146;48.074;11.968;2023-01-10T14:00:24;5.00;99.90
18043;DHT22;9146;48.074;11.968;2023-01-10T14:03:39;5.00;99.90
18043;DHT22;9146;48.074;11.968;2023-01-10T14:06:15;5.00;99.90
18043;DHT22;9146;48.074;11.968;2023-01-10T14:08:53;5.00;99.90
18043;DHT22;9146;48.074;11.968;2023-01-10T14:11:21;4.90;99.90
18043;DHT22;9146;48.074;11.968;2023-01-10T14:13:54;4.80;99.90
18043;DHT22;9146;48.074;11.968;2023-01-10T14:16:33;4.80;99.90
18043;DHT22;9146;48.074;11.968;2023-01-10T14:19:02;4.60;99.90
18043;DHT22;9146;48.074;11.968;2023-01-10T14:21:33;4.60;99.90
18043;DHT22;9146;48.074;11.968;2023-01-10T14:24:03;4.50;99.90
18043;DHT22;9146;48.074;11.968;2023-01-10T14:26:32;4.50;99.90
18043;DHT22;9146;48.074;11.968;2023-01-10T14:29:05;4.40;99.90
18043;DHT22;9146;48.074;11.968;2023-01-10T14:31:34;4.30;99.90
18043;DHT22;9146;48.074;11.968;2023-01-10T14:34:03;4.20;99.90
18043;DHT22;9146;48.074;11.968;2023-01-10T14:36:40;4.10;99.90
18043;DHT22;9146;48.074;11.968;2023-01-10T14:39:13;4.00;99.90
18043;DHT22;9146;48.074;11.968;2023-01-10T14:41:43;3.90;99.90
18043;DHT22;9146;48.074;11.968;2023-01-10T14:44:16;3.80;99.90
18043;DHT22;9146;48.074;11.968;2023-01-10T14:46:47;3.80;99.90
18043;DHT22;9146;48.074;11.968;2023-01-10T14:49:23;3.80;99.90
18043;DHT22;9146;48.074;11.968;2023-01-10T14:51:51;3.90;99.90
18043;DHT22;9146;48.074;11.968;2023-01-10T14:54:25;3.90;99.90
18043;DHT22;9146;48.074;11.968;2023-01-10T14:56:54;3.90;99.90
18043;DHT22;9146;48.074;11.968;2023-01-10T14:59:24;3.90;99.90
18043;DHT22;9146;48.074;11.968;2023-01-10T15:01:54;3.90;99.90
18043;DHT22;9146;48.074;11.968;2023-01-10T15:04:24;3.90;99.90
18043;DHT22;9146;48.074;11.968;2023-01-10T15:06:56;3.90;99.90
18043;DHT22;9146;48.074;11.968;2023-01-10T15:09:25;3.90;99.90
18043;DHT22;9146;48.074;11.968;2023-01-10T15:11:54;3.90;99.90
18043;DHT22;9146;48.074;11.968;2023-01-10T15:14:23;3.90;99.90
18043;DHT22;9146;48.074;11.968;2023-01-10T15:16:54;3.90;99.90
18043;DHT22;9146;48.074;11.968;2023-01-10T15:19:23;3.90;99.90
18043;DHT22;9146;48.074;11.968;2023-01-10T15:21:50;3.80;99.90
18043;DHT22;9146;48.074;11.968;2023-01-10T15:24:29;3.90;99.90
18043;DHT22;9146;48.074;11.968;2023-01-10T15:26:57;3.90;99.90
18043;DHT22;9146;48.074;11.968;2023-01-10T15:29:27;3.90;99.90
18043;DHT22;9146;48.074;11.968;2023-01-10T15:32:02;3.90;99.90
18043;DHT22;9146;48.074;11.968;2023-01-10T15:34:32;3.90;99.90
18043;DHT22;9146;48.074;11.968;2023-01-10T15:37:00;3.80;99.90
18043;DHT22;9146;48.074;11.968;2023-01-10T15:39:29;3.90;99.90
18043;DHT22;9146;48.074;11.968;2023-01-10T15:41:59;3.90;99.90
18043;DHT22;9146;48.074;11.968;2023-01-10T15:44:36;3.90;99.90
18043;DHT22;9146;48.074;11.968;2023-01-10T15:47:04;3.80;99.90
18043;DHT22;9146;48.074;11.968;2023-01-10T15:49:31;3.80;99.90
18043;DHT22;9146;48.074;11.968;2023-01-10T15:51:58;3.70;99.90
18043;DHT22;9146;48.074;11.968;2023-01-10T15:54:31;3.60;99.90
18043;DHT22;9146;48.074;11.968;2023-01-10T15:57:06;3.50;99.90
18043;DHT22;9146;48.074;11.968;2023-01-10T15:59:46;3.50;99.90
18043;DHT22;9146;48.074;11.968;2023-01-10T16:02:22;3.40;99.90
18043;DHT22;9146;48.074;11.968;2023-01-10T16:04:51;3.30;99.90
18043;DHT22;9146;48.074;11.968;2023-01-10T16:07:21;3.20;99.90
18043;DHT22;9146;48.074;11.968;2023-01-10T16:09:53;3.10;99.90
18043;DHT22;9146;48.074;11.968;2023-01-10T16:12:32;2.90;99.90
18043;DHT22;9146;48.074;11.968;2023-01-10T16:15:20;2.80;99.90
18043;DHT22;9146;48.074;11.968;2023-01-10T16:17:48;2.70;99.90
18043;DHT22;9146;48.074;11.968;2023-01-10T16:20:16;2.60;99.90
18043;DHT22;9146;48.074;11.968;2023-01-10T16:22:44;2.50;99.90